sensor_id;sensor_type;location;lat;lon;timestamp;temperature;humidity
61092;DHT22;46975;51.898;11.444;2022-08-14T00:02:22;19.20;99.90
61092;DHT22;46975;51.898;11.444;2022-08-14T00:04:48;19.20;99.90
61092;DHT22;46975;51.898;11.444;2022-08-14T00:07:14;19.10;99.90
61092;DHT22;46975;51.898;11.444;2022-08-14T00:09:40;19.20;99.90
61092;DHT22;46975;51.898;11.444;2022-08-14T00:12:06;19.10;99.90
61092;DHT22;46975;51.898;11.444;2022-08-14T00:14:32;19.10;99.90
61092;DHT22;46975;51.898;11.444;2022-08-14T00:16:57;19.10;99.90
61092;DHT22;46975;51.898;11.444;2022-08-14T00:19:23;19.10;99.90
61092;DHT22;46975;51.898;11.444;2022-08-14T00:21:50;19.20;99.90
61092;DHT22;46975;51.898;11.444;2022-08-14T00:24:17;19.10;99.90
61092;DHT22;46975;51.898;11.444;2022-08-14T00:26:43;19.20;99.90
61092;DHT22;46975;51.898;11.444;2022-08-14T00:29:08;19.20;99.90
61092;DHT22;46975;51.898;11.444;2022-08-14T00:31:34;19.30;99.90
61092;DHT22;46975;51.898;11.444;2022-08-14T00:34:00;19.20;99.90
61092;DHT22;46975;51.898;11.444;2022-08-14T00:36:25;19.30;99.90
61092;DHT22;46975;51.898;11.444;2022-08-14T00:38:51;19.30;99.90
61092;DHT22;46975;51.898;11.444;2022-08-14T00:41:16;19.20;99.90
61092;DHT22;46975;51.898;11.444;2022-08-14T00:43:44;19.20;99.90
61092;DHT22;46975;51.898;11.444;2022-08-14T00:46:10;19.20;99.90
61092;DHT22;46975;51.898;11.444;2022-08-14T00:48:36;19.20;99.90
61092;DHT22;46975;51.898;11.444;2022-08-14T00:51:05;19.20;99.90
61092;DHT22;46975;51.898;11.444;2022-08-14T00:53:31;19.20;99.90
61092;DHT22;46975;51.898;11.444;2022-08-14T00:55:58;19.20;99.90
61092;DHT22;46975;51.898;11.444;2022-08-14T00:58:24;19.10;99.90
61092;DHT22;46975;51.898;11.444;2022-08-14T01:01:02;19.10;99.90
61092;DHT22;46975;51.898;11.444;2022-08-14T01:03:28;19.00;99.90
61092;DHT22;46975;51.898;11.444;2022-08-14T01:05:55;19.00;99.90
61092;DHT22;46975;51.898;11.444;2022-08-14T01:08:24;19.00;99.90
61092;DHT22;46975;51.898;11.444;2022-08-14T01:10:50;19.00;99.90
61092;DHT22;46975;51.898;11.444;2022-08-14T01:13:34;19.00;99.90
61092;DHT22;46975;51.898;11.444;2022-08-14T01:16:06;19.00;99.90
61092;DHT22;46975;51.898;11.444;2022-08-14T01:18:32;19.00;99.90
61092;DHT22;46975;51.898;11.444;2022-08-14T01:23:59;19.00;99.90
61092;DHT22;46975;51.898;11.444;2022-08-14T01:26:25;19.00;99.90
61092;DHT22;46975;51.898;11.444;2022-08-14T01:28:54;18.90;99.90
61092;DHT22;46975;51.898;11.444;2022-08-14T01:31:30;18.90;99.90
61092;DHT22;46975;51.898;11.444;2022-08-14T01:33:58;19.00;99.90
61092;DHT22;46975;51.898;11.444;2022-08-14T01:36:25;18.90;99.90
61092;DHT22;46975;51.898;11.444;2022-08-14T01:38:53;18.90;99.90
61092;DHT22;46975;51.898;11.444;2022-08-14T01:41:23;18.80;99.90
61092;DHT22;46975;51.898;11.444;2022-08-14T01:43:54;18.80;99.90
61092;DHT22;46975;51.898;11.444;2022-08-14T01:46:30;18.80;99.90
61092;DHT22;46975;51.898;11.444;2022-08-14T01:48:57;18.80;99.90
61092;DHT22;46975;51.898;11.444;2022-08-14T01:51:24;18.70;99.90
61092;DHT22;46975;51.898;11.444;2022-08-14T01:54:05;18.70;99.90
61092;DHT22;46975;51.898;11.444;2022-08-14T01:56:51;18.70;99.90
61092;DHT22;46975;51.898;11.444;2022-08-14T02:01:52;18.70;99.90
61092;DHT22;46975;51.898;11.444;2022-08-14T02:04:18;18.60;99.90
61092;DHT22;46975;51.898;11.444;2022-08-14T02:06:45;18.60;99.90
61092;DHT22;46975;51.898;11.444;2022-08-14T02:09:11;18.70;99.90
61092;DHT22;46975;51.898;11.444;2022-08-14T02:11:37;18.70;99.90
61092;DHT22;46975;51.898;11.444;2022-08-14T02:14:05;18.60;99.90
61092;DHT22;46975;51.898;11.444;2022-08-14T02:16:35;18.60;99.90
61092;DHT22;46975;51.898;11.444;2022-08-14T02:19:06;18.50;99.90
61092;DHT22;46975;51.898;11.444;2022-08-14T02:21:33;18.40;99.90
61092;DHT22;46975;51.898;11.444;2022-08-14T02:24:01;18.50;99.90
61092;DHT22;46975;51.898;11.444;2022-08-14T02:26:31;18.60;99.90
61092;DHT22;46975;51.898;11.444;2022-08-14T02:29:02;18.50;99.90
61092;DHT22;46975;51.898;11.444;2022-08-14T02:31:30;18.20;99.90
61092;DHT22;46975;51.898;11.444;2022-08-14T02:33:58;18.10;99.90
61092;DHT22;46975;51.898;11.444;2022-08-14T02:36:24;18.00;99.90
61092;DHT22;46975;51.898;11.444;2022-08-14T02:38:51;18.10;99.90
61092;DHT22;46975;51.898;11.444;2022-08-14T02:41:17;18.00;99.90
61092;DHT22;46975;51.898;11.444;2022-08-14T02:43:43;17.90;99.90
61092;DHT22;46975;51.898;11.444;2022-08-14T02:46:10;17.90;99.90
61092;DHT22;46975;51.898;11.444;2022-08-14T02:48:40;18.00;99.90
61092;DHT22;46975;51.898;11.444;2022-08-14T02:51:12;18.00;99.90
61092;DHT22;46975;51.898;11.444;2022-08-14T02:53:41;18.10;99.90
61092;DHT22;46975;51.898;11.444;2022-08-14T02:56:09;18.10;99.90
61092;DHT22;46975;51.898;11.444;2022-08-14T02:58:37;18.10;99.90
61092;DHT22;46975;51.898;11.444;2022-08-14T03:01:06;18.20;99.90
61092;DHT22;46975;51.898;11.444;2022-08-14T03:03:33;18.20;99.90
61092;DHT22;46975;51.898;11.444;2022-08-14T03:06:02;18.30;99.90
61092;DHT22;46975;51.898;11.444;2022-08-14T03:08:29;18.40;99.90
61092;DHT22;46975;51.898;11.444;2022-08-14T03:11:00;18.40;99.90
61092;DHT22;46975;51.898;11.444;2022-08-14T03:13:26;18.50;99.90
61092;DHT22;46975;51.898;11.444;2022-08-14T03:15:53;18.50;99.90
61092;DHT22;46975;51.898;11.444;2022-08-14T03:18:20;18.50;99.90
61092;DHT22;46975;51.898;11.444;2022-08-14T03:20:49;18.50;99.90
61092;DHT22;46975;51.898;11.444;2022-08-14T03:23:16;18.50;99.90
61092;DHT22;46975;51.898;11.444;2022-08-14T03:25:43;18.50;99.90
61092;DHT22;46975;51.898;11.444;2022-08-14T03:28:09;18.50;99.90
61092;DHT22;46975;51.898;11.444;2022-08-14T03:30:35;18.60;99.90
61092;DHT22;46975;51.898;11.444;2022-08-14T03:33:03;18.60;99.90
61092;DHT22;46975;51.898;11.444;2022-08-14T03:35:29;18.60;99.90
61092;DHT22;46975;51.898;11.444;2022-08-14T03:38:03;18.60;99.90
61092;DHT22;46975;51.898;11.444;2022-08-14T03:40:28;18.60;99.90
61092;DHT22;46975;51.898;11.444;2022-08-14T03:42:54;18.60;99.90
61092;DHT22;46975;51.898;11.444;2022-08-14T03:45:20;18.60;99.90
61092;DHT22;46975;51.898;11.444;2022-08-14T03:47:45;18.50;99.90
61092;DHT22;46975;51.898;11.444;2022-08-14T03:50:11;18.40;99.90
61092;DHT22;46975;51.898;11.444;2022-08-14T03:52:39;18.40;99.90
61092;DHT22;46975;51.898;11.444;2022-08-14T03:55:10;18.30;99.90
61092;DHT22;46975;51.898;11.444;2022-08-14T03:57:40;18.30;99.90
61092;DHT22;46975;51.898;11.444;2022-08-14T04:00:09;18.20;99.90
61092;DHT22;46975;51.898;11.444;2022-08-14T04:02:39;18.20;99.90
61092;DHT22;46975;51.898;11.444;2022-08-14T04:05:07;18.30;99.90
61092;DHT22;46975;51.898;11.444;2022-08-14T04:07:33;18.30;99.90
61092;DHT22;46975;51.898;11.444;2022-08-14T04:09:59;18.20;99.90
61092;DHT22;46975;51.898;11.444;2022-08-14T04:12:26;18.20;99.90
61092;DHT22;46975;51.898;11.444;2022-08-14T04:14:51;18.20;99.90
61092;DHT22;46975;51.898;11.444;2022-08-14T04:17:20;18.20;99.90
61092;DHT22;46975;51.898;11.444;2022-08-14T04:19:45;18.20;99.90
61092;DHT22;46975;51.898;11.444;2022-08-14T04:22:12;18.30;99.90
61092;DHT22;46975;51.898;11.444;2022-08-14T04:24:39;18.20;99.90
61092;DHT22;46975;51.898;11.444;2022-08-14T04:27:09;18.30;99.90
61092;DHT22;46975;51.898;11.444;2022-08-14T04:29:42;18.30;99.90
61092;DHT22;46975;51.898;11.444;2022-08-14T04:32:09;18.30;99.90
61092;DHT22;46975;51.898;11.444;2022-08-14T04:34:35;18.30;99.90
61092;DHT22;46975;51.898;11.444;2022-08-14T04:37:04;18.30;99.90
61092;DHT22;46975;51.898;11.444;2022-08-14T04:39:49;18.20;99.90
61092;DHT22;46975;51.898;11.444;2022-08-14T04:42:33;18.20;99.90
61092;DHT22;46975;51.898;11.444;2022-08-14T04:45:22;18.20;99.90
61092;DHT22;46975;51.898;11.444;2022-08-14T04:47:49;18.30;99.90
61092;DHT22;46975;51.898;11.444;2022-08-14T04:50:33;18.30;99.90
61092;DHT22;46975;51.898;11.444;2022-08-14T04:53:00;18.30;99.90
61092;DHT22;46975;51.898;11.444;2022-08-14T04:55:26;18.40;99.90
61092;DHT22;46975;51.898;11.444;2022-08-14T04:57:52;18.40;99.90
61092;DHT22;46975;51.898;11.444;2022-08-14T05:00:17;18.40;99.90
61092;DHT22;46975;51.898;11.444;2022-08-14T05:02:43;18.40;99.90
61092;DHT22;46975;51.898;11.444;2022-08-14T05:05:08;18.30;99.90
61092;DHT22;46975;51.898;11.444;2022-08-14T05:07:34;18.40;99.90
61092;DHT22;46975;51.898;11.444;2022-08-14T05:10:00;18.50;99.90
61092;DHT22;46975;51.898;11.444;2022-08-14T05:12:26;18.50;99.90
61092;DHT22;46975;51.898;11.444;2022-08-14T05:14:54;18.60;99.90
61092;DHT22;46975;51.898;11.444;2022-08-14T05:17:20;18.60;99.90
61092;DHT22;46975;51.898;11.444;2022-08-14T05:19:51;18.60;99.90
61092;DHT22;46975;51.898;11.444;2022-08-14T05:22:17;18.70;99.90
61092;DHT22;46975;51.898;11.444;2022-08-14T05:24:47;18.80;99.90
61092;DHT22;46975;51.898;11.444;2022-08-14T05:27:13;18.90;99.90
61092;DHT22;46975;51.898;11.444;2022-08-14T05:29:39;18.90;99.90
61092;DHT22;46975;51.898;11.444;2022-08-14T05:32:09;19.00;99.90
61092;DHT22;46975;51.898;11.444;2022-08-14T05:34:35;19.00;99.90
61092;DHT22;46975;51.898;11.444;2022-08-14T05:37:01;19.10;99.90
61092;DHT22;46975;51.898;11.444;2022-08-14T05:39:27;19.20;99.90
61092;DHT22;46975;51.898;11.444;2022-08-14T05:41:52;19.30;99.90
61092;DHT22;46975;51.898;11.444;2022-08-14T05:44:19;19.40;99.90
61092;DHT22;46975;51.898;11.444;2022-08-14T05:46:45;19.40;99.90
61092;DHT22;46975;51.898;11.444;2022-08-14T05:49:10;19.50;99.90
61092;DHT22;46975;51.898;11.444;2022-08-14T05:51:36;19.60;99.90
61092;DHT22;46975;51.898;11.444;2022-08-14T05:54:03;19.60;99.90
61092;DHT22;46975;51.898;11.444;2022-08-14T05:56:28;19.60;99.90
61092;DHT22;46975;51.898;11.444;2022-08-14T05:58:54;19.60;99.90
61092;DHT22;46975;51.898;11.444;2022-08-14T06:01:20;19.70;99.90
61092;DHT22;46975;51.898;11.444;2022-08-14T06:03:45;19.70;99.90
61092;DHT22;46975;51.898;11.444;2022-08-14T06:06:11;19.80;99.90
61092;DHT22;46975;51.898;11.444;2022-08-14T06:08:37;19.90;99.90
61092;DHT22;46975;51.898;11.444;2022-08-14T06:11:05;19.90;99.90
61092;DHT22;46975;51.898;11.444;2022-08-14T06:13:35;20.00;99.90
61092;DHT22;46975;51.898;11.444;2022-08-14T06:16:01;20.20;99.90
61092;DHT22;46975;51.898;11.444;2022-08-14T06:18:27;20.40;99.90
61092;DHT22;46975;51.898;11.444;2022-08-14T06:20:53;20.40;99.90
61092;DHT22;46975;51.898;11.444;2022-08-14T06:23:19;20.60;99.90
61092;DHT22;46975;51.898;11.444;2022-08-14T06:25:44;20.70;99.90
61092;DHT22;46975;51.898;11.444;2022-08-14T06:28:22;20.70;99.90
61092;DHT22;46975;51.898;11.444;2022-08-14T06:30:48;20.90;99.90
61092;DHT22;46975;51.898;11.444;2022-08-14T06:33:15;21.00;99.90
61092;DHT22;46975;51.898;11.444;2022-08-14T06:35:41;21.20;99.90
61092;DHT22;46975;51.898;11.444;2022-08-14T06:38:07;21.40;99.90
61092;DHT22;46975;51.898;11.444;2022-08-14T06:40:35;21.60;99.90
61092;DHT22;46975;51.898;11.444;2022-08-14T06:43:09;21.80;99.90
61092;DHT22;46975;51.898;11.444;2022-08-14T06:45:37;22.10;99.90
61092;DHT22;46975;51.898;11.444;2022-08-14T06:48:03;22.10;99.90
61092;DHT22;46975;51.898;11.444;2022-08-14T06:50:29;22.30;99.90
61092;DHT22;46975;51.898;11.444;2022-08-14T06:52:57;22.30;99.90
61092;DHT22;46975;51.898;11.444;2022-08-14T06:55:23;22.40;99.90
61092;DHT22;46975;51.898;11.444;2022-08-14T06:57:50;22.60;99.90
61092;DHT22;46975;51.898;11.444;2022-08-14T07:00:23;22.80;99.90
61092;DHT22;46975;51.898;11.444;2022-08-14T07:02:50;22.80;99.90
61092;DHT22;46975;51.898;11.444;2022-08-14T07:05:35;22.90;99.90
61092;DHT22;46975;51.898;11.444;2022-08-14T07:08:22;23.00;99.90
61092;DHT22;46975;51.898;11.444;2022-08-14T07:10:52;23.20;99.90
61092;DHT22;46975;51.898;11.444;2022-08-14T07:13:19;23.40;99.90
61092;DHT22;46975;51.898;11.444;2022-08-14T07:15:47;23.60;99.90
61092;DHT22;46975;51.898;11.444;2022-08-14T07:18:28;23.80;99.90
61092;DHT22;46975;51.898;11.444;2022-08-14T07:20:54;23.80;99.90
61092;DHT22;46975;51.898;11.444;2022-08-14T07:23:20;23.80;99.90
61092;DHT22;46975;51.898;11.444;2022-08-14T07:25:49;23.80;99.90
61092;DHT22;46975;51.898;11.444;2022-08-14T07:30:44;23.90;99.90
61092;DHT22;46975;51.898;11.444;2022-08-14T07:33:11;24.00;99.90
61092;DHT22;46975;51.898;11.444;2022-08-14T07:35:38;24.00;99.90
61092;DHT22;46975;51.898;11.444;2022-08-14T07:38:05;24.10;99.90
61092;DHT22;46975;51.898;11.444;2022-08-14T07:40:32;24.20;99.90
61092;DHT22;46975;51.898;11.444;2022-08-14T07:42:59;24.40;99.90
61092;DHT22;46975;51.898;11.444;2022-08-14T07:45:26;24.70;99.90
61092;DHT22;46975;51.898;11.444;2022-08-14T07:47:51;24.90;99.90
61092;DHT22;46975;51.898;11.444;2022-08-14T07:50:20;25.00;99.90
61092;DHT22;46975;51.898;11.444;2022-08-14T07:52:47;25.00;99.90
61092;DHT22;46975;51.898;11.444;2022-08-14T07:55:15;25.00;99.90
61092;DHT22;46975;51.898;11.444;2022-08-14T07:57:45;25.30;99.90
61092;DHT22;46975;51.898;11.444;2022-08-14T08:00:16;25.70;99.90
61092;DHT22;46975;51.898;11.444;2022-08-14T08:02:45;25.80;99.90
61092;DHT22;46975;51.898;11.444;2022-08-14T08:05:11;25.90;99.90
61092;DHT22;46975;51.898;11.444;2022-08-14T08:07:39;26.00;99.90
61092;DHT22;46975;51.898;11.444;2022-08-14T08:12:55;26.20;99.90
61092;DHT22;46975;51.898;11.444;2022-08-14T08:15:23;26.10;99.90
61092;DHT22;46975;51.898;11.444;2022-08-14T08:17:48;26.20;99.90
61092;DHT22;46975;51.898;11.444;2022-08-14T08:20:18;26.50;99.90
61092;DHT22;46975;51.898;11.444;2022-08-14T08:22:47;26.80;99.90
61092;DHT22;46975;51.898;11.444;2022-08-14T08:25:13;27.30;99.90
61092;DHT22;46975;51.898;11.444;2022-08-14T08:27:39;27.50;99.90
61092;DHT22;46975;51.898;11.444;2022-08-14T08:30:07;27.70;99.90
61092;DHT22;46975;51.898;11.444;2022-08-14T08:32:41;27.80;99.90
61092;DHT22;46975;51.898;11.444;2022-08-14T08:35:36;28.10;99.90
61092;DHT22;46975;51.898;11.444;2022-08-14T08:38:16;28.20;99.90
61092;DHT22;46975;51.898;11.444;2022-08-14T08:40:54;27.80;99.90
61092;DHT22;46975;51.898;11.444;2022-08-14T08:45:57;27.90;99.90
61092;DHT22;46975;51.898;11.444;2022-08-14T08:48:26;27.80;99.90
61092;DHT22;46975;51.898;11.444;2022-08-14T08:50:55;27.60;99.90
61092;DHT22;46975;51.898;11.444;2022-08-14T08:53:21;27.70;99.90
61092;DHT22;46975;51.898;11.444;2022-08-14T08:55:47;27.70;99.90
61092;DHT22;46975;51.898;11.444;2022-08-14T08:58:16;27.60;99.90
61092;DHT22;46975;51.898;11.444;2022-08-14T09:00:50;27.70;99.90
61092;DHT22;46975;51.898;11.444;2022-08-14T09:03:19;27.70;99.90
61092;DHT22;46975;51.898;11.444;2022-08-14T09:08:26;27.70;99.90
61092;DHT22;46975;51.898;11.444;2022-08-14T09:10:53;27.60;99.90
61092;DHT22;46975;51.898;11.444;2022-08-14T09:13:21;27.60;99.90
61092;DHT22;46975;51.898;11.444;2022-08-14T09:15:48;27.90;99.90
61092;DHT22;46975;51.898;11.444;2022-08-14T09:18:16;28.10;99.90
61092;DHT22;46975;51.898;11.444;2022-08-14T09:20:45;28.00;99.90
61092;DHT22;46975;51.898;11.444;2022-08-14T09:23:12;28.20;99.90
61092;DHT22;46975;51.898;11.444;2022-08-14T09:25:42;28.40;99.90
61092;DHT22;46975;51.898;11.444;2022-08-14T09:28:09;28.70;99.90
61092;DHT22;46975;51.898;11.444;2022-08-14T09:30:41;28.90;99.90
61092;DHT22;46975;51.898;11.444;2022-08-14T09:33:43;29.10;99.90
61092;DHT22;46975;51.898;11.444;2022-08-14T09:47:41;29.20;99.90
61092;DHT22;46975;51.898;11.444;2022-08-14T09:52:52;29.10;99.90
61092;DHT22;46975;51.898;11.444;2022-08-14T09:55:21;29.60;99.90
61092;DHT22;46975;51.898;11.444;2022-08-14T09:57:48;29.70;99.90
61092;DHT22;46975;51.898;11.444;2022-08-14T10:00:15;29.50;99.90
61092;DHT22;46975;51.898;11.444;2022-08-14T10:02:56;29.70;99.90
61092;DHT22;46975;51.898;11.444;2022-08-14T10:05:35;29.70;99.90
61092;DHT22;46975;51.898;11.444;2022-08-14T10:08:02;29.80;99.90
61092;DHT22;46975;51.898;11.444;2022-08-14T10:10:32;29.80;99.90
61092;DHT22;46975;51.898;11.444;2022-08-14T10:12:59;29.70;99.90
61092;DHT22;46975;51.898;11.444;2022-08-14T10:15:27;29.70;99.90
61092;DHT22;46975;51.898;11.444;2022-08-14T10:18:03;29.80;99.90
61092;DHT22;46975;51.898;11.444;2022-08-14T10:20:33;30.10;99.90
61092;DHT22;46975;51.898;11.444;2022-08-14T10:23:10;30.20;99.90
61092;DHT22;46975;51.898;11.444;2022-08-14T10:26:02;30.20;99.90
61092;DHT22;46975;51.898;11.444;2022-08-14T10:28:37;30.20;99.90
61092;DHT22;46975;51.898;11.444;2022-08-14T10:31:03;30.50;99.90
61092;DHT22;46975;51.898;11.444;2022-08-14T10:33:39;30.90;99.90
61092;DHT22;46975;51.898;11.444;2022-08-14T10:36:05;31.30;99.90
61092;DHT22;46975;51.898;11.444;2022-08-14T10:38:34;31.50;99.90
61092;DHT22;46975;51.898;11.444;2022-08-14T10:41:16;31.70;99.90
61092;DHT22;46975;51.898;11.444;2022-08-14T10:43:44;32.50;99.90
61092;DHT22;46975;51.898;11.444;2022-08-14T10:46:50;32.60;99.90
61092;DHT22;46975;51.898;11.444;2022-08-14T10:49:19;32.50;99.90
61092;DHT22;46975;51.898;11.444;2022-08-14T10:54:41;33.30;98.20
61092;DHT22;46975;51.898;11.444;2022-08-14T10:57:17;33.50;97.40
61092;DHT22;46975;51.898;11.444;2022-08-14T10:59:52;33.40;97.60
61092;DHT22;46975;51.898;11.444;2022-08-14T11:02:33;33.20;97.10
61092;DHT22;46975;51.898;11.444;2022-08-14T11:05:15;32.50;97.50
61092;DHT22;46975;51.898;11.444;2022-08-14T11:10:25;32.40;99.60
61092;DHT22;46975;51.898;11.444;2022-08-14T11:12:55;32.20;96.70
61092;DHT22;46975;51.898;11.444;2022-08-14T11:15:26;32.20;98.20
61092;DHT22;46975;51.898;11.444;2022-08-14T11:17:53;32.70;97.00
61092;DHT22;46975;51.898;11.444;2022-08-14T11:20:21;32.90;96.20
61092;DHT22;46975;51.898;11.444;2022-08-14T11:22:50;33.20;96.60
61092;DHT22;46975;51.898;11.444;2022-08-14T11:25:17;33.40;95.70
61092;DHT22;46975;51.898;11.444;2022-08-14T11:27:45;33.50;96.50
61092;DHT22;46975;51.898;11.444;2022-08-14T11:30:17;33.30;94.00
61092;DHT22;46975;51.898;11.444;2022-08-14T11:32:46;32.60;95.30
61092;DHT22;46975;51.898;11.444;2022-08-14T11:35:24;32.80;94.80
61092;DHT22;46975;51.898;11.444;2022-08-14T11:37:55;32.90;93.80
61092;DHT22;46975;51.898;11.444;2022-08-14T11:40:24;32.70;95.20
61092;DHT22;46975;51.898;11.444;2022-08-14T11:42:52;32.80;93.30
61092;DHT22;46975;51.898;11.444;2022-08-14T11:45:20;33.00;93.50
61092;DHT22;46975;51.898;11.444;2022-08-14T11:47:46;32.90;91.10
61092;DHT22;46975;51.898;11.444;2022-08-14T11:50:17;32.50;92.50
61092;DHT22;46975;51.898;11.444;2022-08-14T11:52:44;32.60;92.30
61092;DHT22;46975;51.898;11.444;2022-08-14T11:55:12;32.70;92.80
61092;DHT22;46975;51.898;11.444;2022-08-14T11:57:38;32.60;93.60
61092;DHT22;46975;51.898;11.444;2022-08-14T12:00:10;32.50;93.20
61092;DHT22;46975;51.898;11.444;2022-08-14T12:02:37;32.60;91.80
61092;DHT22;46975;51.898;11.444;2022-08-14T12:05:13;32.40;92.80
61092;DHT22;46975;51.898;11.444;2022-08-14T12:07:48;32.50;92.60
61092;DHT22;46975;51.898;11.444;2022-08-14T12:10:17;32.50;90.90
61092;DHT22;46975;51.898;11.444;2022-08-14T12:12:43;32.70;91.40
61092;DHT22;46975;51.898;11.444;2022-08-14T12:15:09;32.60;91.60
61092;DHT22;46975;51.898;11.444;2022-08-14T12:17:46;32.60;91.20
61092;DHT22;46975;51.898;11.444;2022-08-14T12:20:17;33.10;90.20
61092;DHT22;46975;51.898;11.444;2022-08-14T12:22:44;33.00;91.00
61092;DHT22;46975;51.898;11.444;2022-08-14T12:25:22;32.80;91.60
61092;DHT22;46975;51.898;11.444;2022-08-14T12:27:50;32.80;91.70
61092;DHT22;46975;51.898;11.444;2022-08-14T12:30:39;33.20;90.70
61092;DHT22;46975;51.898;11.444;2022-08-14T12:35:55;33.10;86.00
61092;DHT22;46975;51.898;11.444;2022-08-14T12:38:50;33.20;86.60
61092;DHT22;46975;51.898;11.444;2022-08-14T12:41:18;33.30;88.10
61092;DHT22;46975;51.898;11.444;2022-08-14T12:43:47;33.40;83.70
61092;DHT22;46975;51.898;11.444;2022-08-14T12:46:37;33.80;85.00
61092;DHT22;46975;51.898;11.444;2022-08-14T12:49:10;33.60;81.70
61092;DHT22;46975;51.898;11.444;2022-08-14T12:51:36;33.50;82.30
61092;DHT22;46975;51.898;11.444;2022-08-14T12:54:16;33.30;82.20
61092;DHT22;46975;51.898;11.444;2022-08-14T12:56:43;33.40;85.20
61092;DHT22;46975;51.898;11.444;2022-08-14T12:59:10;33.10;80.90
61092;DHT22;46975;51.898;11.444;2022-08-14T13:01:36;33.10;79.40
61092;DHT22;46975;51.898;11.444;2022-08-14T13:06:37;33.70;84.90
61092;DHT22;46975;51.898;11.444;2022-08-14T13:09:04;34.50;82.60
61092;DHT22;46975;51.898;11.444;2022-08-14T13:11:40;34.70;79.60
61092;DHT22;46975;51.898;11.444;2022-08-14T13:14:06;34.90;77.00
61092;DHT22;46975;51.898;11.444;2022-08-14T13:16:32;34.80;79.70
61092;DHT22;46975;51.898;11.444;2022-08-14T13:18:59;34.60;75.60
61092;DHT22;46975;51.898;11.444;2022-08-14T13:21:30;34.20;72.20
61092;DHT22;46975;51.898;11.444;2022-08-14T13:23:58;34.30;77.70
61092;DHT22;46975;51.898;11.444;2022-08-14T13:26:25;34.60;71.30
61092;DHT22;46975;51.898;11.444;2022-08-14T13:28:52;34.20;72.40
61092;DHT22;46975;51.898;11.444;2022-08-14T13:31:19;33.50;78.20
61092;DHT22;46975;51.898;11.444;2022-08-14T13:33:47;33.70;77.90
61092;DHT22;46975;51.898;11.444;2022-08-14T13:36:13;34.50;83.40
61092;DHT22;46975;51.898;11.444;2022-08-14T13:38:42;35.00;77.30
61092;DHT22;46975;51.898;11.444;2022-08-14T13:41:09;34.70;77.40
61092;DHT22;46975;51.898;11.444;2022-08-14T13:43:36;35.10;79.20
61092;DHT22;46975;51.898;11.444;2022-08-14T13:46:04;35.10;69.70
61092;DHT22;46975;51.898;11.444;2022-08-14T13:48:30;34.90;71.30
61092;DHT22;46975;51.898;11.444;2022-08-14T13:50:56;34.80;72.50
61092;DHT22;46975;51.898;11.444;2022-08-14T13:53:24;33.70;69.90
61092;DHT22;46975;51.898;11.444;2022-08-14T13:55:51;33.10;74.10
61092;DHT22;46975;51.898;11.444;2022-08-14T13:58:19;32.60;77.20
61092;DHT22;46975;51.898;11.444;2022-08-14T14:00:48;32.10;77.50
61092;DHT22;46975;51.898;11.444;2022-08-14T14:03:17;31.80;80.40
61092;DHT22;46975;51.898;11.444;2022-08-14T14:05:43;32.50;85.50
61092;DHT22;46975;51.898;11.444;2022-08-14T14:08:09;33.50;82.50
61092;DHT22;46975;51.898;11.444;2022-08-14T14:10:38;34.30;77.10
61092;DHT22;46975;51.898;11.444;2022-08-14T14:13:03;34.70;76.70
61092;DHT22;46975;51.898;11.444;2022-08-14T14:15:30;34.80;73.90
61092;DHT22;46975;51.898;11.444;2022-08-14T14:17:55;34.80;75.20
61092;DHT22;46975;51.898;11.444;2022-08-14T14:20:23;35.10;73.90
61092;DHT22;46975;51.898;11.444;2022-08-14T14:22:50;34.70;73.90
61092;DHT22;46975;51.898;11.444;2022-08-14T14:25:18;34.40;73.30
61092;DHT22;46975;51.898;11.444;2022-08-14T14:27:46;34.50;76.10
61092;DHT22;46975;51.898;11.444;2022-08-14T14:30:15;33.90;77.90
61092;DHT22;46975;51.898;11.444;2022-08-14T14:32:43;33.70;79.90
61092;DHT22;46975;51.898;11.444;2022-08-14T14:35:12;33.70;76.50
61092;DHT22;46975;51.898;11.444;2022-08-14T14:37:44;33.40;75.50
61092;DHT22;46975;51.898;11.444;2022-08-14T14:40:13;32.90;78.30
61092;DHT22;46975;51.898;11.444;2022-08-14T14:42:47;32.80;79.10
61092;DHT22;46975;51.898;11.444;2022-08-14T14:45:16;33.60;82.90
61092;DHT22;46975;51.898;11.444;2022-08-14T14:47:46;34.30;76.70
61092;DHT22;46975;51.898;11.444;2022-08-14T14:50:13;34.70;76.20
61092;DHT22;46975;51.898;11.444;2022-08-14T14:52:40;34.90;79.60
61092;DHT22;46975;51.898;11.444;2022-08-14T14:55:08;34.80;75.20
61092;DHT22;46975;51.898;11.444;2022-08-14T14:57:33;34.40;81.00
61092;DHT22;46975;51.898;11.444;2022-08-14T14:59:59;34.50;79.50
61092;DHT22;46975;51.898;11.444;2022-08-14T15:02:35;34.40;73.70
61092;DHT22;46975;51.898;11.444;2022-08-14T15:05:01;34.60;73.30
61092;DHT22;46975;51.898;11.444;2022-08-14T15:07:27;34.80;76.60
61092;DHT22;46975;51.898;11.444;2022-08-14T15:09:53;34.90;71.40
61092;DHT22;46975;51.898;11.444;2022-08-14T15:12:19;35.00;71.80
61092;DHT22;46975;51.898;11.444;2022-08-14T15:14:45;35.10;73.50
61092;DHT22;46975;51.898;11.444;2022-08-14T15:17:11;35.00;75.60
61092;DHT22;46975;51.898;11.444;2022-08-14T15:19:37;34.40;70.10
61092;DHT22;46975;51.898;11.444;2022-08-14T15:22:02;33.80;75.00
61092;DHT22;46975;51.898;11.444;2022-08-14T15:24:28;33.10;74.50
61092;DHT22;46975;51.898;11.444;2022-08-14T15:26:55;32.70;76.70
61092;DHT22;46975;51.898;11.444;2022-08-14T15:29:21;32.30;76.40
61092;DHT22;46975;51.898;11.444;2022-08-14T15:31:47;32.10;79.90
61092;DHT22;46975;51.898;11.444;2022-08-14T15:34:12;31.90;81.20
61092;DHT22;46975;51.898;11.444;2022-08-14T15:36:43;31.60;80.10
61092;DHT22;46975;51.898;11.444;2022-08-14T15:39:11;31.40;79.80
61092;DHT22;46975;51.898;11.444;2022-08-14T15:41:37;31.10;78.80
61092;DHT22;46975;51.898;11.444;2022-08-14T15:44:03;30.90;78.80
61092;DHT22;46975;51.898;11.444;2022-08-14T15:46:29;30.80;80.20
61092;DHT22;46975;51.898;11.444;2022-08-14T15:48:56;30.60;81.00
61092;DHT22;46975;51.898;11.444;2022-08-14T15:51:23;30.40;81.10
61092;DHT22;46975;51.898;11.444;2022-08-14T15:53:49;30.30;83.80
61092;DHT22;46975;51.898;11.444;2022-08-14T15:56:15;30.20;86.00
61092;DHT22;46975;51.898;11.444;2022-08-14T15:58:41;30.10;87.80
61092;DHT22;46975;51.898;11.444;2022-08-14T16:01:07;30.00;86.60
61092;DHT22;46975;51.898;11.444;2022-08-14T16:03:46;29.90;88.80
61092;DHT22;46975;51.898;11.444;2022-08-14T16:06:14;29.70;86.70
61092;DHT22;46975;51.898;11.444;2022-08-14T16:08:41;29.80;90.70